createdAt,value
2023-12-09T00:00:23.747Z,2.05
2023-12-09T00:03:09.852Z,2.15
2023-12-09T00:05:55.946Z,2.05
2023-12-09T00:08:42.077Z,2.00
2023-12-09T00:11:27.468Z,1.75
2023-12-09T00:14:13.125Z,1.70
2023-12-09T00:16:58.503Z,1.70
2023-12-09T00:19:44.179Z,1.80
2023-12-09T00:22:30.137Z,2.00
2023-12-09T00:25:16.003Z,1.80
2023-12-09T00:28:01.631Z,1.92
2023-12-09T00:30:47.021Z,1.85
2023-12-09T00:33:32.713Z,2.00
2023-12-09T00:36:18.604Z,2.67
2023-12-09T00:39:03.985Z,3.85
2023-12-09T00:41:49.445Z,2.95
2023-12-09T00:44:34.899Z,3.83
2023-12-09T00:47:20.459Z,4.75
2023-12-09T00:50:07.106Z,3.15
2023-12-09T00:52:52.337Z,3.58
2023-12-09T00:55:37.970Z,5.20
2023-12-09T00:58:23.502Z,2.15
2023-12-09T01:01:08.933Z,2.42
2023-12-09T01:03:54.886Z,5.00
2023-12-09T01:06:40.605Z,4.35
2023-12-09T01:09:26.885Z,3.80
2023-12-09T01:12:12.296Z,2.90
2023-12-09T01:14:57.898Z,2.45
2023-12-09T01:17:44.113Z,4.15
2023-12-09T01:20:29.976Z,4.78
2023-12-09T01:23:15.566Z,3.83
2023-12-09T01:26:01.306Z,2.60
2023-12-09T01:28:46.841Z,2.22
2023-12-09T01:31:32.873Z,1.60
2023-12-09T01:34:18.511Z,1.67
2023-12-09T01:37:04.178Z,1.70
2023-12-09T01:39:49.647Z,1.92
2023-12-09T01:42:35.050Z,1.67
2023-12-09T01:45:21.633Z,1.70
2023-12-09T01:48:09.365Z,1.90
2023-12-09T01:50:54.804Z,1.83
2023-12-09T01:53:40.135Z,1.73
2023-12-09T01:56:26.045Z,1.65
2023-12-09T01:59:11.587Z,1.58
2023-12-09T02:01:57.787Z,1.60
2023-12-09T02:04:43.223Z,1.70
2023-12-09T02:07:28.981Z,1.88
2023-12-09T02:10:14.572Z,1.73
2023-12-09T02:13:24.300Z,2.42
2023-12-09T02:16:18.469Z,1.83
2023-12-09T02:19:08.538Z,2.38
2023-12-09T02:22:03.033Z,2.30
2023-12-09T02:24:48.526Z,2.38
2023-12-09T02:27:45.154Z,2.42
2023-12-09T02:30:41.037Z,2.40
2023-12-09T02:33:27.472Z,2.47
2023-12-09T02:36:20.682Z,2.88
2023-12-09T02:39:08.528Z,2.53
2023-12-09T02:41:57.326Z,2.80
2023-12-09T02:44:43.815Z,2.80
2023-12-09T02:47:29.469Z,3.35
2023-12-09T02:50:15.350Z,4.10
2023-12-09T02:53:00.825Z,4.35
2023-12-09T02:55:46.211Z,4.10
2023-12-09T02:58:31.611Z,4.05
2023-12-09T03:01:17.031Z,3.88
2023-12-09T03:04:02.856Z,4.45
2023-12-09T03:06:48.840Z,3.92
2023-12-09T03:09:34.182Z,3.53
2023-12-09T03:12:19.586Z,3.67
2023-12-09T03:15:06.792Z,3.55
2023-12-09T03:17:52.855Z,3.50
2023-12-09T03:20:38.377Z,3.92
2023-12-09T03:23:23.664Z,4.30
2023-12-09T03:26:20.119Z,3.67
2023-12-09T03:29:05.759Z,3.47
2023-12-09T03:31:51.085Z,4.03
2023-12-09T03:34:36.609Z,3.53
2023-12-09T03:37:22.435Z,4.07
2023-12-09T03:40:11.248Z,3.83
2023-12-09T03:42:56.608Z,3.60
2023-12-09T03:45:42.414Z,5.47
2023-12-09T03:48:30.291Z,4.75
2023-12-09T03:51:16.082Z,5.13
2023-12-09T03:54:02.192Z,5.25
2023-12-09T03:56:47.496Z,4.88
2023-12-09T03:59:32.733Z,4.63
2023-12-09T04:02:19.644Z,4.60
2023-12-09T04:05:07.408Z,5.40
2023-12-09T04:07:52.792Z,5.47
2023-12-09T04:10:38.318Z,5.13
2023-12-09T04:13:23.589Z,4.25
2023-12-09T04:16:09.243Z,4.53
2023-12-09T04:18:54.892Z,4.30
2023-12-09T04:21:40.219Z,4.25
2023-12-09T04:24:26.093Z,4.80
2023-12-09T04:27:11.444Z,4.10
2023-12-09T04:29:56.888Z,3.97
2023-12-09T04:32:42.614Z,4.53
2023-12-09T04:35:28.247Z,4.18
2023-12-09T04:38:13.917Z,4.65
2023-12-09T04:40:59.490Z,4.13
2023-12-09T04:43:44.962Z,4.15
2023-12-09T04:46:31.109Z,4.20
2023-12-09T04:49:16.801Z,4.18
2023-12-09T04:52:02.652Z,5.10
2023-12-09T04:54:48.327Z,6.03
2023-12-09T04:57:33.810Z,6.28
2023-12-09T05:00:19.413Z,7.53
2023-12-09T05:03:04.963Z,7.90
2023-12-09T05:05:51.025Z,8.68
2023-12-09T05:08:36.497Z,8.45
2023-12-09T05:11:21.766Z,7.78
2023-12-09T05:14:07.331Z,6.22
2023-12-09T05:16:52.940Z,4.18
2023-12-09T05:19:38.670Z,4.50
2023-12-09T05:22:24.297Z,3.47
2023-12-09T05:25:10.419Z,4.35
2023-12-09T05:27:56.171Z,5.40
2023-12-09T05:30:43.060Z,6.97
2023-12-09T05:33:29.080Z,3.60
2023-12-09T05:36:15.294Z,2.08
2023-12-09T05:39:00.811Z,4.75
2023-12-09T05:41:46.143Z,2.40
2023-12-09T05:44:31.635Z,6.63
2023-12-09T05:47:17.060Z,7.05
2023-12-09T05:50:02.429Z,6.70
2023-12-09T05:52:47.690Z,5.32
2023-12-09T05:55:33.054Z,3.75
2023-12-09T05:58:19.371Z,3.00
2023-12-09T06:01:04.997Z,3.30
2023-12-09T06:03:50.334Z,3.45
2023-12-09T06:06:35.951Z,3.22
2023-12-09T06:09:21.778Z,3.83
2023-12-09T06:12:07.542Z,3.08
2023-12-09T06:14:54.472Z,2.95
2023-12-09T06:17:40.445Z,3.10
2023-12-09T06:20:26.081Z,2.10
2023-12-09T06:23:11.718Z,2.50
2023-12-09T06:25:57.240Z,2.53
2023-12-09T06:28:42.909Z,2.35
2023-12-09T06:31:28.362Z,2.50
2023-12-09T06:34:13.941Z,2.47
2023-12-09T06:36:59.774Z,2.38
2023-12-09T06:39:45.606Z,2.88
2023-12-09T06:42:31.880Z,2.72
2023-12-09T06:45:18.041Z,2.80
2023-12-09T06:48:04.236Z,2.85
2023-12-09T06:50:50.059Z,2.10
2023-12-09T06:53:39.876Z,2.60
2023-12-09T06:56:25.456Z,2.35
2023-12-09T06:59:11.488Z,2.67
2023-12-09T07:01:58.009Z,6.10
2023-12-09T07:04:43.527Z,9.18
2023-12-09T07:07:29.318Z,15.02
2023-12-09T07:10:14.853Z,12.02
2023-12-09T07:13:00.607Z,11.80
2023-12-09T07:15:46.023Z,14.20
2023-12-09T07:18:31.886Z,17.08
2023-12-09T07:21:18.006Z,13.38
2023-12-09T07:24:05.164Z,12.93
2023-12-09T07:26:52.166Z,11.30
2023-12-09T07:29:37.608Z,10.40
2023-12-09T07:32:23.383Z,8.65
2023-12-09T07:35:09.302Z,9.60
2023-12-09T07:37:56.178Z,7.95
2023-12-09T07:40:42.168Z,6.63
2023-12-09T07:43:27.763Z,7.18
2023-12-09T07:46:13.451Z,8.43
2023-12-09T07:48:58.824Z,7.28
2023-12-09T07:51:44.403Z,5.90
2023-12-09T07:54:29.928Z,5.60
2023-12-09T07:57:15.607Z,7.95
2023-12-09T08:00:01.661Z,6.90
2023-12-09T08:02:47.402Z,7.63
2023-12-09T08:05:35.807Z,6.97
2023-12-09T08:08:21.716Z,7.18
2023-12-09T08:11:07.533Z,8.70
2023-12-09T08:13:53.018Z,8.52
2023-12-09T08:16:38.410Z,10.23
2023-12-09T08:19:24.347Z,9.38
2023-12-09T08:22:10.217Z,11.20
2023-12-09T08:24:55.557Z,12.18
2023-12-09T08:27:40.915Z,12.02
2023-12-09T08:30:26.374Z,9.82
2023-12-09T08:33:12.049Z,8.52
2023-12-09T08:35:57.939Z,9.93
2023-12-09T08:38:43.175Z,9.27
2023-12-09T08:41:30.785Z,5.82
2023-12-09T08:44:16.491Z,2.90
2023-12-09T08:47:01.971Z,2.60
2023-12-09T08:49:47.379Z,2.55
2023-12-09T08:52:33.751Z,3.00
2023-12-09T08:55:19.374Z,4.00
2023-12-09T08:58:05.047Z,3.80
2023-12-09T09:00:53.277Z,3.20
2023-12-09T09:03:38.943Z,3.13
2023-12-09T09:06:24.312Z,3.05
2023-12-09T09:09:12.811Z,2.90
2023-12-09T09:11:58.663Z,2.30
2023-12-09T09:14:44.922Z,2.15
2023-12-09T09:17:30.248Z,1.80
2023-12-09T09:20:16.180Z,1.58
2023-12-09T09:23:01.843Z,2.00
2023-12-09T09:25:47.459Z,2.53
2023-12-09T09:28:33.284Z,2.28
2023-12-09T09:31:18.849Z,2.08
2023-12-09T09:34:04.748Z,2.60
2023-12-09T09:36:50.483Z,2.95
2023-12-09T09:39:36.230Z,2.40
2023-12-09T09:42:45.361Z,2.88
2023-12-09T09:45:32.469Z,4.35
2023-12-09T09:48:19.270Z,2.60
2023-12-09T09:51:08.596Z,3.20
2023-12-09T09:54:22.100Z,3.38
2023-12-09T09:59:57.348Z,3.63
2023-12-09T10:02:48.870Z,4.20
2023-12-09T10:05:34.173Z,3.85
2023-12-09T10:08:19.852Z,4.35
2023-12-09T10:11:05.307Z,3.63
2023-12-09T10:13:51.159Z,3.55
2023-12-09T10:16:37.014Z,4.43
2023-12-09T10:19:22.765Z,3.92
2023-12-09T10:22:08.498Z,3.13
2023-12-09T10:24:55.743Z,3.03
2023-12-09T10:27:42.938Z,3.00
2023-12-09T10:30:28.797Z,2.10
2023-12-09T10:33:16.518Z,2.20
2023-12-09T10:36:03.003Z,2.80
2023-12-09T10:38:48.516Z,2.60
2023-12-09T10:41:33.840Z,3.63
2023-12-09T10:44:19.677Z,3.80
2023-12-09T10:47:05.806Z,3.17
2023-12-09T10:49:52.747Z,2.33
2023-12-09T10:52:39.407Z,2.60
2023-12-09T10:55:25.296Z,2.80
2023-12-09T10:58:13.231Z,3.25
2023-12-09T11:00:59.164Z,3.45
2023-12-09T11:03:44.752Z,4.30
2023-12-09T11:06:38.863Z,4.30
2023-12-09T11:09:24.878Z,3.60
2023-12-09T11:12:10.395Z,2.50
2023-12-09T11:14:56.459Z,2.10
2023-12-09T11:17:45.321Z,2.58
2023-12-09T11:20:31.166Z,3.20
2023-12-09T11:23:16.850Z,2.42
2023-12-09T11:26:02.432Z,2.40
2023-12-09T11:29:08.496Z,2.08
2023-12-09T11:31:54.576Z,1.95
2023-12-09T11:34:40.525Z,1.80
2023-12-09T11:37:31.244Z,1.90
2023-12-09T11:40:17.045Z,1.95
2023-12-09T11:43:04.564Z,1.80
2023-12-09T11:45:51.564Z,2.33
2023-12-09T11:48:37.720Z,2.38
2023-12-09T11:51:23.183Z,2.85
2023-12-09T11:54:10.673Z,1.67
2023-12-09T11:56:56.649Z,1.50
2023-12-09T11:59:41.915Z,2.00
2023-12-09T12:02:28.008Z,2.95
2023-12-09T12:05:13.683Z,2.17
2023-12-09T12:07:59.623Z,1.55
2023-12-09T12:10:45.113Z,1.75
2023-12-09T12:13:31.194Z,2.30
2023-12-09T12:16:17.271Z,3.75
2023-12-09T12:19:02.795Z,3.88
2023-12-09T12:21:57.582Z,2.35
2023-12-09T12:24:46.454Z,2.90
2023-12-09T12:27:36.970Z,3.22
2023-12-09T12:30:24.410Z,3.50
2023-12-09T12:33:10.247Z,3.53
2023-12-09T12:35:56.562Z,3.40
2023-12-09T12:38:42.219Z,4.40
2023-12-09T12:41:27.672Z,4.90
2023-12-09T12:44:13.077Z,3.28
2023-12-09T12:46:58.770Z,3.35
2023-12-09T12:49:44.539Z,3.00
2023-12-09T12:52:30.623Z,4.40
2023-12-09T12:55:16.275Z,4.53
2023-12-09T12:58:01.596Z,5.60
2023-12-09T13:00:50.631Z,16.48
2023-12-09T13:03:36.708Z,7.82
2023-12-09T13:06:22.330Z,4.15
2023-12-09T13:09:09.768Z,4.93
2023-12-09T13:11:55.557Z,4.32
2023-12-09T13:14:41.071Z,4.53
2023-12-09T13:17:26.800Z,5.32
2023-12-09T13:20:12.581Z,4.43
2023-12-09T13:22:58.505Z,3.40
2023-12-09T13:25:43.941Z,2.38
2023-12-09T13:28:29.527Z,2.63
2023-12-09T13:31:16.187Z,2.20
2023-12-09T13:34:02.274Z,1.77
2023-12-09T13:36:48.254Z,3.58
2023-12-09T13:39:34.563Z,3.05
2023-12-09T13:42:20.036Z,3.75
2023-12-09T13:45:07.136Z,4.72
2023-12-09T13:47:52.775Z,4.40
2023-12-09T13:50:40.857Z,4.20
2023-12-09T13:53:27.613Z,3.83
2023-12-09T13:56:12.982Z,3.90
2023-12-09T13:58:58.406Z,4.55
2023-12-09T14:01:44.227Z,5.35
2023-12-09T14:04:30.214Z,7.10
2023-12-09T14:07:16.554Z,7.63
2023-12-09T14:10:02.370Z,7.20
2023-12-09T14:12:48.919Z,6.10
2023-12-09T14:15:34.614Z,4.47
2023-12-09T14:18:20.659Z,4.68
2023-12-09T14:21:07.498Z,2.70
2023-12-09T14:23:53.302Z,1.90
2023-12-09T14:26:39.249Z,2.17
2023-12-09T14:29:25.022Z,2.00
2023-12-09T14:32:11.364Z,3.25
2023-12-09T14:34:56.845Z,4.20
2023-12-09T14:37:44.077Z,5.03
2023-12-09T14:40:29.772Z,7.60
2023-12-09T14:43:15.038Z,6.10
2023-12-09T14:46:00.634Z,7.15
2023-12-09T14:48:46.573Z,6.97
2023-12-09T14:51:40.660Z,5.75
2023-12-09T14:54:30.111Z,6.53
2023-12-09T14:57:18.324Z,6.97
2023-12-09T15:00:05.074Z,7.20
2023-12-09T15:02:50.405Z,15.15
2023-12-09T15:05:36.061Z,13.55
2023-12-09T15:08:22.140Z,11.73
2023-12-09T15:11:07.454Z,9.40
2023-12-09T15:13:52.810Z,9.38
2023-12-09T15:16:38.138Z,8.73
2023-12-09T15:19:23.660Z,9.48
2023-12-09T15:22:09.297Z,9.75
2023-12-09T15:24:54.801Z,11.75
2023-12-09T15:27:40.371Z,11.77
2023-12-09T15:30:26.030Z,6.00
2023-12-09T15:33:11.872Z,8.55
2023-12-09T15:35:58.836Z,12.88
2023-12-09T15:38:44.418Z,13.60
2023-12-09T15:41:29.852Z,6.97
2023-12-09T15:44:17.613Z,7.18
2023-12-09T15:47:03.420Z,6.75
2023-12-09T15:49:48.806Z,4.97
2023-12-09T15:52:34.315Z,9.40
2023-12-09T15:55:19.785Z,36.38
2023-12-09T15:58:05.454Z,19.10
2023-12-09T16:00:50.926Z,8.70
2023-12-09T16:03:37.716Z,8.27
2023-12-09T16:06:23.465Z,7.28
2023-12-09T16:09:09.056Z,6.43
2023-12-09T16:11:54.374Z,7.15
2023-12-09T16:14:40.235Z,6.35
2023-12-09T16:17:25.981Z,5.75
2023-12-09T16:20:12.218Z,23.77
2023-12-09T16:22:57.982Z,4.10
2023-12-09T16:25:43.446Z,3.67
2023-12-09T16:28:28.803Z,3.13
2023-12-09T16:31:16.422Z,3.42
2023-12-09T16:34:03.991Z,5.70
2023-12-09T16:36:49.718Z,6.15
2023-12-09T16:39:35.444Z,5.43
2023-12-09T16:42:21.533Z,4.90
2023-12-09T16:45:09.970Z,7.80
2023-12-09T16:47:56.452Z,8.23
2023-12-09T16:50:42.396Z,9.63
2023-12-09T16:53:28.267Z,11.23
2023-12-09T16:56:13.637Z,11.40
2023-12-09T16:58:59.288Z,9.52
2023-12-09T17:01:44.852Z,10.55
2023-12-09T17:04:30.302Z,6.10
2023-12-09T17:07:16.049Z,4.70
2023-12-09T17:10:01.539Z,5.68
2023-12-09T17:12:48.475Z,4.30
2023-12-09T17:15:33.947Z,4.68
2023-12-09T17:18:20.340Z,14.95
2023-12-09T17:21:05.911Z,13.80
2023-12-09T17:23:51.356Z,15.50
2023-12-09T17:26:36.701Z,14.23
2023-12-09T17:29:22.101Z,13.65
2023-12-09T17:32:07.471Z,12.68
2023-12-09T17:34:53.092Z,11.07
2023-12-09T17:37:38.628Z,7.00
2023-12-09T17:40:23.931Z,5.22
2023-12-09T17:43:09.297Z,4.40
2023-12-09T17:45:55.159Z,3.47
2023-12-09T17:48:41.818Z,3.30
2023-12-09T17:51:27.705Z,2.80
2023-12-09T17:54:13.244Z,4.57
2023-12-09T17:56:58.526Z,4.70
2023-12-09T17:59:43.877Z,6.25
2023-12-09T18:02:29.344Z,4.82
2023-12-09T18:05:15.142Z,8.75
2023-12-09T18:08:00.491Z,4.93
2023-12-09T18:10:45.904Z,6.22
2023-12-09T18:13:31.165Z,8.10
2023-12-09T18:16:18.101Z,8.25
2023-12-09T18:19:04.579Z,8.57
2023-12-09T18:21:50.496Z,7.75
2023-12-09T18:24:36.336Z,6.40
2023-12-09T18:27:22.847Z,5.57
2023-12-09T18:30:11.307Z,5.32
2023-12-09T18:32:57.105Z,5.75
2023-12-09T18:35:42.896Z,9.75
2023-12-09T18:38:29.075Z,12.68
2023-12-09T18:41:15.436Z,12.57
2023-12-09T18:44:01.137Z,6.30
2023-12-09T18:46:46.535Z,11.00
2023-12-09T18:49:32.449Z,14.90
2023-12-09T18:52:18.396Z,14.45
2023-12-09T18:55:04.869Z,9.07
2023-12-09T18:57:50.860Z,6.80
2023-12-09T19:00:37.195Z,8.18
2023-12-09T19:03:24.684Z,13.40
2023-12-09T19:06:11.151Z,11.23
2023-12-09T19:08:56.437Z,6.10
2023-12-09T19:11:42.152Z,5.47
2023-12-09T19:14:27.441Z,4.80
2023-12-09T19:17:13.132Z,6.53
2023-12-09T19:19:58.850Z,4.40
2023-12-09T19:22:44.563Z,3.20
2023-12-09T19:25:29.846Z,5.13
2023-12-09T19:28:15.281Z,3.95
2023-12-09T19:31:00.649Z,3.10
2023-12-09T19:33:46.778Z,3.20
2023-12-09T19:36:32.669Z,5.43
2023-12-09T19:39:18.142Z,6.20
2023-12-09T19:42:03.684Z,9.30
2023-12-09T19:44:49.107Z,9.48
2023-12-09T19:47:34.698Z,8.18
2023-12-09T19:50:22.915Z,9.18
2023-12-09T19:53:09.917Z,3.70
2023-12-09T19:55:56.542Z,3.40
2023-12-09T19:58:42.323Z,3.92
2023-12-09T20:01:28.007Z,3.95
2023-12-09T20:04:13.331Z,4.53
2023-12-09T20:06:59.121Z,5.35
2023-12-09T20:09:44.500Z,5.68
2023-12-09T20:12:30.754Z,7.03
2023-12-09T20:15:17.055Z,1.40
2023-12-09T20:18:03.024Z,1.80
2023-12-09T20:20:49.082Z,1.40
2023-12-09T20:23:34.428Z,1.13
2023-12-09T20:26:19.896Z,1.08
2023-12-09T20:29:05.631Z,1.30
2023-12-09T20:31:51.361Z,1.30
2023-12-09T20:34:36.848Z,1.30
2023-12-09T20:37:22.668Z,1.23
2023-12-09T20:40:08.949Z,1.40
2023-12-09T20:42:54.525Z,1.00
2023-12-09T20:45:40.435Z,0.90
2023-12-09T20:48:26.268Z,1.02
2023-12-09T20:51:11.977Z,0.80
2023-12-09T20:53:57.266Z,0.70
2023-12-09T20:56:42.745Z,0.73
2023-12-09T20:59:28.318Z,0.70
2023-12-09T21:02:14.090Z,0.95
2023-12-09T21:05:00.969Z,0.60
2023-12-09T21:07:46.466Z,0.55
2023-12-09T21:10:31.979Z,0.57
2023-12-09T21:13:17.335Z,0.70
2023-12-09T21:16:03.702Z,0.50
2023-12-09T21:18:49.399Z,0.70
2023-12-09T21:21:35.017Z,0.50
2023-12-09T21:24:20.373Z,0.60
2023-12-09T21:27:05.799Z,0.50
2023-12-09T21:29:51.344Z,0.52
2023-12-09T21:32:36.938Z,0.50
2023-12-09T21:35:23.214Z,0.50
2023-12-09T21:38:08.827Z,0.50
2023-12-09T21:40:54.532Z,0.35
2023-12-09T21:43:40.070Z,0.40
2023-12-09T21:46:25.683Z,0.30
2023-12-09T21:49:11.478Z,0.40
2023-12-09T21:51:58.530Z,0.25
2023-12-09T21:54:46.037Z,0.40
2023-12-09T21:57:32.609Z,0.20
2023-12-09T22:00:18.613Z,0.20
2023-12-09T22:03:04.299Z,0.20
2023-12-09T22:05:49.685Z,0.30
2023-12-09T22:08:34.877Z,0.20
2023-12-09T22:11:21.360Z,0.25
2023-12-09T22:14:06.952Z,0.30
2023-12-09T22:16:53.292Z,0.50
2023-12-09T22:19:39.031Z,2.20
2023-12-09T22:22:24.971Z,0.40
2023-12-09T22:25:13.577Z,0.40
2023-12-09T22:27:59.205Z,0.50
2023-12-09T22:30:44.774Z,0.50
2023-12-09T22:33:30.162Z,0.50
2023-12-09T22:36:21.672Z,0.52
2023-12-09T22:39:12.933Z,0.75
2023-12-09T22:41:58.796Z,0.60
2023-12-09T22:44:44.555Z,0.50
2023-12-09T22:47:31.171Z,0.60
2023-12-09T22:50:17.186Z,0.57
2023-12-09T22:53:02.941Z,0.47
2023-12-09T22:55:48.253Z,0.40
2023-12-09T22:58:33.583Z,0.50
2023-12-09T23:01:29.059Z,0.32
2023-12-09T23:04:14.795Z,0.40
2023-12-09T23:07:00.337Z,0.43
2023-12-09T23:09:46.083Z,0.50
2023-12-09T23:12:32.192Z,0.60
2023-12-09T23:15:17.887Z,0.90
2023-12-09T23:18:03.553Z,0.90
2023-12-09T23:20:48.912Z,1.10
2023-12-09T23:23:35.287Z,0.98
2023-12-09T23:26:20.819Z,0.75
2023-12-09T23:29:08.164Z,1.00
2023-12-09T23:31:53.523Z,0.60
2023-12-09T23:34:38.993Z,0.60
2023-12-09T23:37:24.755Z,0.50
2023-12-09T23:40:10.981Z,0.50
2023-12-09T23:42:56.927Z,0.40
2023-12-09T23:45:43.892Z,0.40
2023-12-09T23:48:29.796Z,0.40
2023-12-09T23:51:16.298Z,0.30
2023-12-09T23:54:01.756Z,0.32
2023-12-09T23:56:47.317Z,0.35
2023-12-09T23:59:33.146Z,0.38
